Time;durP1;ratioP1;P1;durP2;ratioP2;P2;SDS_P1;SDS_P2;PMS_P1;PMS_P2;Temp;Humidity;BMP_temperature;BMP_pressure;BME280_temperature;BME280_humidity;BME280_pressure;Samples;Min_cycle;Max_cycle;Signal;HPM_P1;HPM_P2
2022/01/28 00:02:04;;;;;;;44.95;21.97;;;0.40;99.90;;;;;;1956632;72;22248;-89
2022/01/28 00:04:46;;;;;;;45.08;22.48;;;0.40;99.90;;;;;;1946535;73;21240;-88
2022/01/28 00:07:38;;;;;;;46.77;23.20;;;0.40;99.90;;;;;;1928499;73;21028;-89
2022/01/28 00:10:31;;;;;;;46.35;22.82;;;0.30;99.90;;;;;;1922334;73;21063;-91
2022/01/28 00:38:06;;;;;;;51.60;25.35;;;0.10;99.90;;;;;;1905485;75;21106;-89
2022/01/28 00:40:55;;;;;;;47.60;23.83;;;0.10;99.90;;;;;;1905341;75;21055;-89
2022/01/28 00:46:38;;;;;;;51.33;24.67;;;0.00;99.90;;;;;;1953229;72;22155;-89
2022/01/28 00:49:29;;;;;;;49.50;24.43;;;0.10;99.90;;;;;;1894069;75;21182;-90
2022/01/28 00:52:21;;;;;;;47.75;25.40;;;0.10;99.90;;;;;;1890723;75;21159;-90
2022/01/28 00:55:13;;;;;;;41.88;21.27;;;0.00;99.90;;;;;;1902260;75;21139;-89
2022/01/28 00:58:05;;;;;;;39.05;20.40;;;0.00;99.90;;;;;;1878697;75;21040;-90
2022/01/28 01:00:57;;;;;;;36.55;20.45;;;-0.20;99.90;;;;;;1895486;75;21106;-89
2022/01/28 01:03:48;;;;;;;36.42;18.25;;;-0.30;99.90;;;;;;1890216;75;21149;-92
2022/01/28 01:09:33;;;;;;;33.65;18.35;;;-0.50;99.90;;;;;;1970799;72;22106;-89
2022/01/28 01:12:26;;;;;;;41.58;20.52;;;-0.50;99.90;;;;;;1915925;73;21084;-89
2022/01/28 01:15:22;;;;;;;43.28;21.12;;;-0.40;99.90;;;;;;1909067;74;21066;-89
2022/01/28 01:18:18;;;;;;;43.23;21.00;;;-0.30;99.90;;;;;;1905721;75;21122;-90
2022/01/28 01:21:05;;;;;;;40.43;21.17;;;-0.20;99.90;;;;;;1905498;75;21090;-90
2022/01/28 01:26:38;;;;;;;41.63;21.15;;;0.00;99.90;;;;;;1940947;72;22227;-90
2022/01/28 01:52:02;;;;;;;48.30;23.18;;;0.20;99.90;;;;;;1907189;75;21063;-91
2022/01/28 01:54:54;;;;;;;50.25;22.62;;;0.30;99.90;;;;;;1912822;75;21086;-90
2022/01/28 01:57:46;;;;;;;50.05;24.87;;;0.30;99.90;;;;;;1917267;75;21076;-90
2022/01/28 02:00:37;;;;;;;49.08;23.70;;;0.30;99.90;;;;;;1891702;75;21114;-90
2022/01/28 02:06:11;;;;;;;48.28;22.35;;;0.20;99.90;;;;;;1976472;72;22135;-90
2022/01/28 02:12:01;;;;;;;48.15;22.52;;;0.30;99.90;;;;;;1976785;72;22143;-90
2022/01/28 02:14:52;;;;;;;45.83;23.62;;;0.40;99.90;;;;;;1931809;73;21096;-89
2022/01/28 02:17:45;;;;;;;46.05;22.27;;;0.40;99.90;;;;;;1916259;75;21137;-89
2022/01/28 02:20:38;;;;;;;48.50;23.57;;;0.30;99.90;;;;;;1932604;74;21499;-89
2022/01/28 02:26:14;;;;;;;46.92;22.32;;;0.30;99.90;;;;;;1964503;72;22618;-89
2022/01/28 02:29:09;;;;;;;44.38;21.87;;;0.30;99.90;;;;;;1916527;73;21067;-89
2022/01/28 02:31:59;;;;;;;40.98;21.20;;;0.20;99.90;;;;;;1919871;73;21055;-90
2022/01/28 02:37:39;;;;;;;44.05;21.25;;;0.30;99.90;;;;;;1955506;72;22257;-90
2022/01/28 02:40:30;;;;;;;43.83;21.35;;;0.30;99.90;;;;;;1917922;74;21168;-89
2022/01/28 02:43:31;;;;;;;43.25;21.75;;;0.30;99.90;;;;;;1895450;75;21146;-91
2022/01/28 02:46:20;;;;;;;44.13;21.05;;;0.30;99.90;;;;;;1906830;75;21095;-90
2022/01/28 02:51:51;;;;;;;39.80;20.60;;;0.30;99.90;;;;;;1946135;72;22289;-90
2022/01/28 02:54:46;;;;;;;41.45;21.27;;;0.30;99.90;;;;;;1896628;75;21226;-89
2022/01/28 02:57:39;;;;;;;38.67;20.35;;;0.20;99.90;;;;;;1908888;75;21054;-90
2022/01/28 03:00:29;;;;;;;42.43;21.05;;;0.10;99.90;;;;;;1896627;75;21165;-90
2022/01/28 03:03:23;;;;;;;39.38;20.15;;;0.10;99.90;;;;;;1887333;75;21154;-90
2022/01/28 03:06:16;;;;;;;39.70;20.17;;;0.20;99.90;;;;;;1904248;75;21050;-90
2022/01/28 03:09:15;;;;;;;39.45;19.77;;;0.10;99.90;;;;;;1908944;75;21058;-90
2022/01/28 03:12:13;;;;;;;36.45;20.00;;;0.10;99.90;;;;;;1893278;75;21144;-92
2022/01/28 03:15:01;;;;;;;37.93;20.57;;;0.10;99.90;;;;;;1873188;76;21067;-90
2022/01/28 03:17:54;;;;;;;37.85;20.23;;;0.20;99.90;;;;;;1910088;75;21063;-90
2022/01/28 03:20:55;;;;;;;36.48;19.85;;;0.10;99.90;;;;;;1909556;75;21125;-90
2022/01/28 03:23:38;;;;;;;41.28;21.25;;;0.20;99.90;;;;;;1908695;75;21140;-89
2022/01/28 03:26:29;;;;;;;36.93;20.43;;;0.20;99.90;;;;;;1850482;77;21067;-90
2022/01/28 03:29:21;;;;;;;38.20;19.62;;;0.20;99.90;;;;;;1888695;75;21134;-91
2022/01/28 03:32:13;;;;;;;35.95;19.87;;;0.10;99.90;;;;;;1910163;75;21200;-89
2022/01/28 03:35:05;;;;;;;35.10;18.77;;;0.00;99.90;;;;;;1908591;75;21098;-90
2022/01/28 03:38:00;;;;;;;35.83;18.77;;;0.00;99.90;;;;;;1915269;75;21187;-89
2022/01/28 03:43:31;;;;;;;36.03;18.87;;;-0.10;99.90;;;;;;1957447;72;22163;-90
2022/01/28 03:46:22;;;;;;;35.75;18.75;;;-0.10;99.90;;;;;;1917506;74;21121;-90
2022/01/28 03:51:53;;;;;;;34.75;18.37;;;-0.10;99.90;;;;;;1943113;72;22189;-90
2022/01/28 03:54:46;;;;;;;38.48;19.65;;;0.00;99.90;;;;;;1893429;75;21050;-91
2022/01/28 03:57:37;;;;;;;36.48;18.12;;;-0.10;99.90;;;;;;1905269;75;21125;-90
2022/01/28 04:00:31;;;;;;;38.65;18.98;;;-0.20;99.90;;;;;;1905355;75;21062;-90
2022/01/28 04:03:46;;;;;;;36.65;18.90;;;-0.20;99.90;;;;;;1889213;75;21038;-88
2022/01/28 04:12:30;;;;;;;35.10;18.67;;;-0.20;99.90;;;;;;1954450;72;22216;-89
2022/01/28 04:15:24;;;;;;;36.05;18.67;;;-0.10;99.90;;;;;;1951575;73;21055;-91
2022/01/28 04:18:14;;;;;;;32.83;17.07;;;-0.10;99.90;;;;;;1917644;75;21130;-89
2022/01/28 04:21:06;;;;;;;32.15;18.52;;;-0.10;99.90;;;;;;1936241;73;21055;-88
2022/01/28 04:26:36;;;;;;;33.65;18.57;;;-0.10;99.90;;;;;;1944384;72;22780;-90
2022/01/28 04:32:18;;;;;;;36.80;19.32;;;-0.10;99.90;;;;;;1958640;72;22171;-89
2022/01/28 04:35:11;;;;;;;38.53;20.65;;;-0.10;99.90;;;;;;1901378;75;21494;-89
2022/01/28 04:38:15;;;;;;;34.70;18.45;;;-0.20;99.90;;;;;;1894440;75;21173;-89
2022/01/28 04:41:05;;;;;;;34.80;17.82;;;-0.10;99.90;;;;;;1888614;75;21118;-90
2022/01/28 04:43:55;;;;;;;32.93;18.07;;;0.00;99.90;;;;;;1883814;75;21231;-89
2022/01/28 04:46:48;;;;;;;36.70;18.75;;;0.10;99.90;;;;;;1883494;75;21137;-92
2022/01/28 04:49:50;;;;;;;34.18;17.82;;;-0.10;99.90;;;;;;1883601;75;21062;-89
2022/01/28 04:52:54;;;;;;;35.55;18.85;;;-0.20;99.90;;;;;;1887212;75;21068;-90
2022/01/28 05:02:07;;;;;;;34.63;18.70;;;-0.10;99.90;;;;;;1927430;72;22170;-90
2022/01/28 05:05:00;;;;;;;35.80;18.57;;;0.00;99.90;;;;;;1908174;75;21046;-89
2022/01/28 05:08:03;;;;;;;33.33;18.20;;;-0.20;99.90;;;;;;1903730;75;21106;-89
2022/01/28 05:14:08;;;;;;;33.70;18.80;;;-0.20;99.90;;;;;;1955180;72;22115;-91
2022/01/28 05:32:38;;;;;;;34.43;18.85;;;-0.10;99.90;;;;;;1965093;72;22255;-91
2022/01/28 05:35:31;;;;;;;33.02;18.65;;;-0.10;99.90;;;;;;1917573;75;21218;-89
2022/01/28 05:38:22;;;;;;;36.90;19.42;;;-0.10;99.90;;;;;;1919947;73;21047;-90
2022/01/28 05:41:14;;;;;;;34.20;19.00;;;0.00;99.90;;;;;;1941547;73;21110;-90
2022/01/28 06:12:51;;;;;;;32.17;17.32;;;0.20;99.90;;;;;;1926918;72;22268;-90
2022/01/28 06:15:44;;;;;;;30.52;16.97;;;0.30;99.90;;;;;;1886783;75;21191;-90
2022/01/28 06:21:21;;;;;;;34.75;18.23;;;0.30;99.90;;;;;;1976379;72;22248;-90
2022/01/28 06:24:13;;;;;;;35.03;18.48;;;0.20;99.90;;;;;;1931205;73;21085;-90
2022/01/28 06:27:05;;;;;;;28.95;15.53;;;0.20;99.90;;;;;;1905350;75;21122;-90
2022/01/28 06:32:36;;;;;;;33.50;17.50;;;0.10;99.90;;;;;;1951464;72;22256;-90
2022/01/28 06:35:28;;;;;;;33.40;17.52;;;0.10;99.90;;;;;;1907260;75;21122;-90
2022/01/28 06:38:20;;;;;;;31.62;17.32;;;0.00;99.90;;;;;;1903619;75;21117;-90
2022/01/28 06:43:54;;;;;;;32.28;18.42;;;0.10;99.90;;;;;;1951538;72;22297;-91
2022/01/28 06:46:46;;;;;;;31.33;17.57;;;0.20;99.90;;;;;;1884751;76;21137;-92
2022/01/28 06:49:38;;;;;;;30.90;18.35;;;0.20;99.90;;;;;;1886223;75;21066;-89
2022/01/28 06:52:30;;;;;;;31.73;18.30;;;0.20;99.90;;;;;;1899632;75;21129;-90
2022/01/28 06:55:22;;;;;;;32.50;18.02;;;0.20;99.90;;;;;;1909717;75;21518;-89
2022/01/28 06:58:14;;;;;;;32.05;17.75;;;0.20;99.90;;;;;;1895796;75;21092;-89
2022/01/28 07:01:07;;;;;;;32.78;17.48;;;0.20;99.90;;;;;;1907359;75;21098;-89
2022/01/28 07:04:00;;;;;;;32.38;17.75;;;0.20;99.90;;;;;;1904743;75;21113;-89
2022/01/28 07:06:51;;;;;;;33.15;18.20;;;0.20;99.90;;;;;;1916130;75;21131;-89
2022/01/28 07:09:48;;;;;;;32.20;17.25;;;0.10;99.90;;;;;;1917086;75;21051;-90
2022/01/28 07:12:43;;;;;;;33.00;17.92;;;0.10;99.90;;;;;;1896134;75;21047;-89
2022/01/28 07:15:35;;;;;;;30.20;17.35;;;0.20;99.90;;;;;;1893874;75;21129;-89
2022/01/28 07:18:27;;;;;;;33.25;17.77;;;0.30;99.90;;;;;;1902852;75;21047;-91
2022/01/28 07:21:19;;;;;;;32.58;17.73;;;0.20;99.90;;;;;;1897772;75;21113;-89
2022/01/28 07:24:11;;;;;;;35.48;18.60;;;0.20;99.90;;;;;;1895501;75;21106;-89
2022/01/28 07:27:03;;;;;;;32.65;18.00;;;0.30;99.90;;;;;;1896779;75;21157;-89
2022/01/28 07:32:49;;;;;;;32.10;16.10;;;0.30;99.90;;;;;;1976736;72;22310;-90
2022/01/28 07:41:20;;;;;;;32.30;17.20;;;0.30;99.90;;;;;;1976365;72;22260;-90
2022/01/28 07:46:51;;;;;;;33.70;17.77;;;0.40;99.90;;;;;;1940395;72;22366;-90
2022/01/28 07:49:42;;;;;;;31.57;17.45;;;0.40;99.90;;;;;;1892688;75;21054;-90
2022/01/28 07:52:39;;;;;;;33.08;18.67;;;0.40;99.90;;;;;;1873251;76;21119;-90
2022/01/28 07:55:31;;;;;;;34.25;18.42;;;0.40;99.90;;;;;;1892559;73;21208;-90
2022/01/28 07:58:23;;;;;;;30.12;16.85;;;0.40;99.90;;;;;;1883477;75;21060;-90
2022/01/28 08:01:15;;;;;;;31.23;16.82;;;0.40;99.90;;;;;;1905052;73;21160;-91
2022/01/28 08:04:09;;;;;;;34.13;19.00;;;0.50;99.90;;;;;;1885490;74;21056;-90
2022/01/28 08:07:03;;;;;;;30.15;16.25;;;0.40;99.90;;;;;;1887501;75;21132;-90
2022/01/28 08:12:33;;;;;;;33.35;17.50;;;0.40;99.90;;;;;;1958146;72;22265;-90
2022/01/28 08:15:25;;;;;;;31.85;17.62;;;0.40;99.90;;;;;;1947119;73;21125;-91
2022/01/28 08:18:16;;;;;;;27.70;16.40;;;0.40;99.90;;;;;;1899991;75;21142;-90
2022/01/28 08:26:34;;;;;;;31.70;16.93;;;0.50;99.90;;;;;;1946866;72;22515;-91
2022/01/28 08:32:10;;;;;;;38.08;23.52;;;0.70;99.90;;;;;;1928768;72;28030;-90
2022/01/28 08:35:02;;;;;;;34.43;18.27;;;0.70;99.90;;;;;;1907154;75;21613;-90
2022/01/28 08:40:34;;;;;;;32.90;17.70;;;0.60;99.90;;;;;;1943866;72;22344;-90
2022/01/28 08:43:28;;;;;;;29.25;16.07;;;0.60;99.90;;;;;;1912052;75;21042;-89
2022/01/28 08:49:08;;;;;;;34.92;17.95;;;0.50;99.90;;;;;;1947725;72;22166;-90
2022/01/28 08:52:01;;;;;;;31.23;17.85;;;0.60;99.90;;;;;;1896506;75;21132;-90
2022/01/28 08:54:53;;;;;;;31.73;18.12;;;0.60;99.90;;;;;;1911684;75;21169;-89
2022/01/28 08:57:45;;;;;;;31.97;17.57;;;0.60;99.90;;;;;;1885307;75;21126;-89
2022/01/28 09:00:37;;;;;;;33.28;17.32;;;0.60;99.90;;;;;;1832062;77;21128;-89
2022/01/28 09:03:30;;;;;;;33.42;16.77;;;0.60;99.90;;;;;;1897449;75;21235;-89
2022/01/28 09:06:22;;;;;;;36.15;17.85;;;0.60;99.90;;;;;;1906816;75;21173;-90
2022/01/28 09:09:18;;;;;;;33.70;18.20;;;0.50;99.90;;;;;;1888165;75;21102;-90
2022/01/28 09:14:56;;;;;;;33.15;18.10;;;0.60;99.90;;;;;;1962251;72;22171;-90
2022/01/28 09:17:50;;;;;;;39.23;20.05;;;0.60;99.90;;;;;;1905353;75;21160;-90
2022/01/28 09:20:42;;;;;;;36.15;19.40;;;0.60;99.90;;;;;;1905556;75;21060;-88
2022/01/28 09:23:34;;;;;;;31.55;17.25;;;0.60;99.90;;;;;;1849010;77;21066;-92
2022/01/28 09:26:29;;;;;;;33.58;17.55;;;0.70;99.90;;;;;;1921334;74;21051;-90
2022/01/28 09:32:00;;;;;;;34.63;17.67;;;0.70;99.90;;;;;;1946030;72;22271;-90
2022/01/28 09:37:33;;;;;;;32.75;17.65;;;0.90;99.90;;;;;;1938737;72;22155;-90
2022/01/28 09:43:08;;;;;;;32.67;18.75;;;0.80;99.90;;;;;;1942148;72;22274;-91
2022/01/28 09:46:00;;;;;;;34.20;18.95;;;0.80;99.90;;;;;;1900598;75;21072;-90
2022/01/28 09:51:32;;;;;;;31.17;17.35;;;1.10;99.90;;;;;;1943511;72;22162;-91
2022/01/28 09:57:09;;;;;;;31.15;17.90;;;1.30;99.90;;;;;;1951101;72;22277;-91
2022/01/28 10:00:03;;;;;;;34.30;18.80;;;1.40;99.90;;;;;;1891499;73;21064;-91
2022/01/28 10:03:00;;;;;;;34.27;17.35;;;1.40;99.90;;;;;;1916347;73;21052;-91
2022/01/28 10:05:53;;;;;;;33.38;17.95;;;1.50;99.90;;;;;;1896126;75;21099;-91
2022/01/28 10:11:23;;;;;;;35.15;18.95;;;1.60;99.90;;;;;;1952441;72;22158;-91
2022/01/28 10:17:00;;;;;;;33.60;18.35;;;1.70;99.90;;;;;;1955003;72;22115;-90
2022/01/28 10:19:54;;;;;;;27.22;16.75;;;1.90;99.90;;;;;;1938517;73;21108;-91
2022/01/28 10:22:52;;;;;;;29.07;16.77;;;1.90;99.90;;;;;;1930628;73;21145;-90
2022/01/28 10:28:54;;;;;;;33.40;17.95;;;1.80;99.90;;;;;;2007454;71;22200;-90
2022/01/28 10:31:54;;;;;;;31.42;17.57;;;1.80;99.90;;;;;;1976797;72;21150;-90
2022/01/28 10:37:32;;;;;;;32.33;17.80;;;2.00;99.90;;;;;;1962621;72;22144;-90
2022/01/28 10:40:24;;;;;;;30.92;17.45;;;2.10;99.90;;;;;;1927477;73;21043;-90
2022/01/28 10:43:18;;;;;;;35.25;19.27;;;2.20;99.90;;;;;;1917683;75;21052;-90
2022/01/28 10:46:10;;;;;;;34.13;19.45;;;2.10;99.90;;;;;;1938804;73;21042;-89
2022/01/28 10:51:42;;;;;;;35.80;19.80;;;2.00;99.90;;;;;;1950591;72;22138;-90
2022/01/28 10:54:36;;;;;;;34.40;19.42;;;1.90;99.90;;;;;;1894885;75;21106;-91
2022/01/28 10:57:29;;;;;;;36.93;21.17;;;1.90;99.90;;;;;;1905667;75;21163;-90
2022/01/28 11:00:21;;;;;;;35.68;20.23;;;2.10;99.90;;;;;;1913968;73;21159;-91
2022/01/28 11:03:14;;;;;;;32.42;18.35;;;2.30;99.90;;;;;;1879664;73;21189;-90
2022/01/28 11:06:08;;;;;;;33.88;18.57;;;2.30;99.90;;;;;;1882787;73;21194;-90
2022/01/28 11:11:40;;;;;;;36.90;19.77;;;2.30;99.90;;;;;;1957434;72;22227;-90
2022/01/28 11:17:28;;;;;;;34.85;18.57;;;2.30;99.90;;;;;;1956034;72;22275;-90
2022/01/28 11:20:22;;;;;;;36.20;20.37;;;2.50;99.90;;;;;;1916066;73;21096;-91
2022/01/28 11:23:24;;;;;;;36.17;20.82;;;2.40;99.90;;;;;;1921187;74;21086;-91
2022/01/28 11:29:12;;;;;;;33.55;18.10;;;2.40;99.90;;;;;;1958813;73;22187;-91
2022/01/28 11:32:15;;;;;;;31.37;18.60;;;2.50;99.90;;;;;;1913094;75;21574;-89
2022/01/28 11:35:10;;;;;;;31.17;18.25;;;2.50;99.90;;;;;;1898675;75;21051;-92
2022/01/28 11:38:04;;;;;;;33.98;19.45;;;2.70;99.90;;;;;;1898194;75;21117;-91
2022/01/28 11:43:37;;;;;;;35.68;20.17;;;2.80;99.90;;;;;;1938121;72;22221;-91
2022/01/28 11:46:31;;;;;;;36.58;19.77;;;2.80;99.90;;;;;;1897470;75;21079;-91
2022/01/28 11:49:24;;;;;;;36.98;20.17;;;2.80;99.90;;;;;;1905333;75;21079;-90
2022/01/28 11:52:29;;;;;;;37.50;20.23;;;2.90;99.90;;;;;;1888034;75;21129;-91
2022/01/28 11:55:39;;;;;;;35.00;20.27;;;3.00;99.90;;;;;;1872999;76;21059;-89
2022/01/28 12:02:20;;;;;;;35.73;20.12;;;3.10;99.90;;;;;;1934485;72;22156;-90
2022/01/28 12:08:00;;;;;;;36.68;20.40;;;3.00;99.90;;;;;;1949260;72;22212;-91
2022/01/28 12:10:53;;;;;;;34.35;20.57;;;3.10;99.90;;;;;;1905620;75;21191;-90
2022/01/28 12:14:03;;;;;;;33.65;20.05;;;3.40;99.90;;;;;;1905126;75;21590;-90
2022/01/28 12:16:48;;;;;;;38.00;20.17;;;3.40;99.90;;;;;;1905063;75;21107;-90
2022/01/28 12:22:23;;;;;;;32.95;20.17;;;3.40;99.90;;;;;;1969616;72;22201;-90
2022/01/28 12:25:52;;;;;;;34.23;20.45;;;3.40;99.90;;;;;;1917671;75;21088;-93
2022/01/28 12:31:29;;;;;;;31.50;19.85;;;3.60;99.90;;;;;;1954324;72;22182;-79
2022/01/28 12:34:22;;;;;;;33.65;19.70;;;3.70;99.90;;;;;;1884246;75;21150;-78
2022/01/28 12:37:13;;;;;;;34.27;20.10;;;3.70;99.90;;;;;;1884499;76;21064;-78
2022/01/28 12:40:23;;;;;;;32.25;19.60;;;3.60;99.90;;;;;;1888346;75;21179;-80
2022/01/28 12:43:02;;;;;;;33.50;19.50;;;3.30;99.90;;;;;;1917020;75;21076;-78
2022/01/28 12:46:01;;;;;;;36.33;20.17;;;3.40;99.90;;;;;;1915225;75;21051;-78
2022/01/28 12:51:33;;;;;;;33.40;19.62;;;3.30;99.90;;;;;;1940702;72;22253;-80
2022/01/28 12:57:20;;;;;;;37.42;20.20;;;3.20;99.90;;;;;;1936959;72;22127;-79
2022/01/28 13:00:15;;;;;;;37.60;21.27;;;3.10;99.90;;;;;;1898737;75;21126;-80
2022/01/28 13:03:07;;;;;;;36.03;19.87;;;3.10;99.90;;;;;;1876378;75;21090;-80
2022/01/28 13:06:07;;;;;;;35.68;21.35;;;3.20;99.90;;;;;;1879265;75;21084;-80
2022/01/28 13:08:55;;;;;;;40.48;21.30;;;3.10;99.90;;;;;;1893459;75;21093;-80
2022/01/28 13:11:48;;;;;;;33.15;20.02;;;3.10;99.90;;;;;;1889948;75;21209;-80
2022/01/28 13:14:43;;;;;;;36.33;19.70;;;3.20;99.90;;;;;;1884071;75;21107;-80
2022/01/28 13:20:19;;;;;;;41.05;20.25;;;3.10;99.90;;;;;;1935930;72;22297;-80
2022/01/28 13:23:12;;;;;;;38.50;21.15;;;3.00;99.90;;;;;;1893835;75;21098;-80
2022/01/28 13:26:09;;;;;;;37.55;21.37;;;3.10;99.90;;;;;;1910274;74;21110;-79
2022/01/28 13:29:10;;;;;;;36.60;20.77;;;3.20;99.90;;;;;;1906618;75;21102;-84
2022/01/28 13:32:03;;;;;;;36.00;20.80;;;3.20;99.90;;;;;;1906305;75;21127;-84
2022/01/28 13:34:56;;;;;;;37.10;20.65;;;3.20;99.90;;;;;;1884818;76;21059;-85
2022/01/28 13:37:50;;;;;;;33.98;20.43;;;3.30;99.90;;;;;;1901140;75;21114;-84
2022/01/28 13:40:42;;;;;;;32.40;19.23;;;3.30;99.90;;;;;;1896441;75;21090;-83
2022/01/28 13:43:37;;;;;;;38.65;22.22;;;3.30;99.90;;;;;;1922907;73;21112;-83
2022/01/28 13:46:33;;;;;;;36.73;20.20;;;3.30;99.90;;;;;;1914643;73;21090;-84
2022/01/28 13:49:31;;;;;;;36.08;20.40;;;3.50;99.90;;;;;;1905215;75;21098;-84
2022/01/28 13:52:29;;;;;;;35.70;20.82;;;3.60;99.90;;;;;;1884392;75;21189;-85
2022/01/28 13:58:28;;;;;;;34.55;20.25;;;3.70;99.90;;;;;;1952517;72;22288;-84
2022/01/28 14:01:23;;;;;;;32.45;20.12;;;3.70;99.90;;;;;;1908077;74;21153;-84
2022/01/28 14:04:23;;;;;;;37.40;21.17;;;3.70;99.90;;;;;;1925594;74;21059;-83
2022/01/28 14:07:18;;;;;;;36.25;20.95;;;3.80;99.90;;;;;;1880876;74;21140;-83
2022/01/28 14:12:54;;;;;;;36.55;21.27;;;3.90;99.90;;;;;;1947109;72;22210;-84
2022/01/28 14:18:27;;;;;;;38.55;21.57;;;4.10;99.90;;;;;;1941922;72;22150;-84
2022/01/28 14:21:19;;;;;;;36.08;20.23;;;4.20;99.90;;;;;;1936920;73;21104;-84
2022/01/28 14:24:15;;;;;;;36.42;21.20;;;4.20;99.90;;;;;;1943482;72;21054;-83
2022/01/28 14:27:24;;;;;;;35.95;20.85;;;4.30;99.90;;;;;;1927012;73;21108;-84
2022/01/28 14:30:18;;;;;;;35.58;20.80;;;4.40;99.90;;;;;;1957781;73;21238;-84
2022/01/28 14:33:11;;;;;;;35.48;21.05;;;4.30;99.90;;;;;;1928866;73;21141;-84
2022/01/28 14:36:04;;;;;;;35.20;20.43;;;4.20;99.90;;;;;;1938540;73;21086;-84
2022/01/28 14:38:58;;;;;;;37.45;20.70;;;4.20;99.90;;;;;;1935157;73;21034;-84
2022/01/28 14:41:51;;;;;;;33.10;19.30;;;4.20;99.90;;;;;;1934752;73;21026;-84
2022/01/28 14:44:48;;;;;;;33.33;18.98;;;4.20;99.90;;;;;;1933511;73;21050;-84
2022/01/28 14:47:40;;;;;;;32.38;19.10;;;4.30;99.90;;;;;;1923602;74;21046;-84
2022/01/28 14:50:33;;;;;;;32.55;18.15;;;4.50;99.90;;;;;;1937562;73;21088;-84
2022/01/28 14:53:27;;;;;;;33.70;18.20;;;4.40;99.90;;;;;;1958140;73;21180;-84
2022/01/28 14:56:18;;;;;;;32.98;19.52;;;4.40;99.90;;;;;;1934877;73;21177;-84
2022/01/28 14:59:10;;;;;;;34.50;20.10;;;4.30;99.90;;;;;;1936170;73;21203;-84
2022/01/28 15:02:03;;;;;;;34.27;20.23;;;4.30;99.90;;;;;;1940141;73;21139;-83
2022/01/28 15:04:57;;;;;;;36.98;20.37;;;4.30;99.90;;;;;;1934944;73;21493;-83
2022/01/28 15:07:49;;;;;;;37.28;21.30;;;4.40;99.90;;;;;;1935280;73;21078;-81
2022/01/28 15:10:42;;;;;;;36.73;21.30;;;4.40;99.90;;;;;;1934427;73;21129;-83
2022/01/28 15:13:33;;;;;;;41.13;22.25;;;4.30;99.90;;;;;;1943060;73;21083;-81
2022/01/28 15:16:25;;;;;;;34.53;19.95;;;4.20;99.90;;;;;;1937845;73;21654;-81
2022/01/28 15:19:17;;;;;;;37.80;19.90;;;4.20;99.90;;;;;;1935537;73;21116;-83
2022/01/28 15:22:10;;;;;;;38.55;20.15;;;4.20;99.90;;;;;;1864379;75;21110;-80
2022/01/28 15:25:04;;;;;;;31.23;16.25;;;4.20;99.90;;;;;;1963559;72;21059;-84
2022/01/28 15:27:56;;;;;;;24.70;14.90;;;4.30;99.90;;;;;;1914444;75;21067;-81
2022/01/28 15:34:21;;;;;;;15.68;9.03;;;4.40;99.90;;;;;;1913754;75;21147;-82
2022/01/28 15:37:09;;;;;;;14.78;8.53;;;4.30;99.90;;;;;;1932963;72;21062;-80
2022/01/28 15:40:00;;;;;;;13.35;7.55;;;4.20;99.90;;;;;;1913796;74;21627;-80
2022/01/28 15:42:54;;;;;;;15.45;7.85;;;4.00;99.90;;;;;;1913991;75;21196;-81
2022/01/28 15:45:47;;;;;;;10.48;6.28;;;4.00;99.90;;;;;;1947690;72;21126;-81
2022/01/28 15:48:39;;;;;;;14.98;7.75;;;4.00;99.90;;;;;;1937182;72;21109;-86
2022/01/28 15:51:30;;;;;;;13.83;8.30;;;3.90;99.90;;;;;;1918361;74;21060;-86
2022/01/28 15:54:22;;;;;;;13.68;7.62;;;3.60;99.90;;;;;;1913933;75;21577;-85
2022/01/28 15:57:14;;;;;;;12.82;7.15;;;3.60;99.90;;;;;;1930302;74;21023;-85
2022/01/28 16:00:10;;;;;;;12.75;7.37;;;3.50;99.90;;;;;;1925077;74;21109;-86
2022/01/28 16:03:10;;;;;;;14.28;8.60;;;3.40;99.90;;;;;;1916505;74;21047;-84
2022/01/28 16:06:01;;;;;;;12.78;7.95;;;3.40;99.90;;;;;;1936441;74;21108;-84
2022/01/28 16:08:55;;;;;;;15.63;9.83;;;3.40;99.90;;;;;;1934146;74;21477;-86
2022/01/28 16:11:50;;;;;;;15.28;7.67;;;3.40;99.90;;;;;;1928946;74;21050;-85
2022/01/28 16:14:47;;;;;;;11.25;5.97;;;3.40;99.90;;;;;;1932900;74;21027;-85
2022/01/28 16:17:37;;;;;;;15.68;7.22;;;3.30;99.90;;;;;;1919425;74;21634;-84
2022/01/28 16:20:32;;;;;;;13.03;6.50;;;3.30;99.90;;;;;;1914030;74;21117;-79
2022/01/28 16:26:04;;;;;;;13.50;6.70;;;3.30;99.90;;;;;;1938861;72;22301;-85
2022/01/28 16:28:57;;;;;;;12.68;7.53;;;3.20;99.90;;;;;;1910732;75;21141;-84
2022/01/28 16:34:31;;;;;;;25.48;14.65;;;3.20;99.90;;;;;;1955203;72;22127;-85
2022/01/28 16:37:25;;;;;;;18.05;10.72;;;3.20;99.90;;;;;;1915393;75;21134;-84
2022/01/28 16:40:18;;;;;;;10.10;6.67;;;3.20;99.90;;;;;;1895351;75;21052;-84
2022/01/28 16:43:16;;;;;;;25.72;14.90;;;3.30;99.90;;;;;;1895715;75;21059;-84
2022/01/28 16:46:03;;;;;;;17.25;8.95;;;3.30;99.90;;;;;;1916326;73;21520;-84
2022/01/28 16:48:56;;;;;;;15.98;8.63;;;3.30;99.90;;;;;;1899026;75;21103;-78
2022/01/28 16:51:51;;;;;;;17.32;10.53;;;3.20;99.90;;;;;;1895431;75;21051;-77
2022/01/28 16:54:41;;;;;;;21.55;13.05;;;3.20;99.90;;;;;;1894991;75;21183;-78
2022/01/28 16:57:35;;;;;;;17.85;10.75;;;3.20;99.90;;;;;;1908649;73;21183;-77
2022/01/28 17:00:27;;;;;;;17.17;10.30;;;3.30;99.90;;;;;;1909484;73;21101;-77
2022/01/28 17:03:19;;;;;;;10.72;6.85;;;3.30;99.90;;;;;;1895507;75;21092;-77
2022/01/28 17:06:10;;;;;;;16.65;8.25;;;3.20;99.90;;;;;;1895374;75;21173;-86
2022/01/28 17:09:04;;;;;;;20.52;11.80;;;3.10;99.90;;;;;;1895327;75;21091;-87
2022/01/28 17:12:16;;;;;;;17.02;8.78;;;3.10;99.90;;;;;;1901805;75;21102;-86
2022/01/28 17:14:51;;;;;;;30.35;14.65;;;3.20;99.90;;;;;;1896940;75;21217;-85
2022/01/28 17:17:44;;;;;;;38.40;21.17;;;3.10;99.90;;;;;;1895013;75;21208;-85
2022/01/28 17:20:37;;;;;;;42.62;21.45;;;3.10;99.90;;;;;;1905992;75;21063;-86
2022/01/28 17:23:30;;;;;;;12.68;7.95;;;3.00;99.90;;;;;;1896998;75;21159;-85
2022/01/28 17:26:21;;;;;;;13.40;7.70;;;2.90;99.90;;;;;;1899709;75;21216;-86
2022/01/28 17:29:13;;;;;;;13.70;7.75;;;2.80;99.90;;;;;;1889239;75;21176;-86
2022/01/28 17:32:06;;;;;;;14.68;8.83;;;2.70;99.90;;;;;;1906599;75;21140;-85
2022/01/28 17:34:57;;;;;;;13.68;8.20;;;2.70;99.90;;;;;;1892356;74;21114;-85
2022/01/28 17:37:49;;;;;;;14.15;7.92;;;2.70;99.90;;;;;;1831778;78;21136;-85
2022/01/28 17:40:40;;;;;;;15.00;8.23;;;2.70;99.90;;;;;;1893124;75;21039;-85
2022/01/28 17:46:15;;;;;;;15.00;7.40;;;2.70;99.90;;;;;;1954440;72;22249;-86
2022/01/28 17:49:07;;;;;;;14.70;8.55;;;2.70;99.90;;;;;;1917182;75;21110;-84
2022/01/28 17:52:00;;;;;;;18.82;9.45;;;2.60;99.90;;;;;;1881453;76;21059;-85
2022/01/28 17:54:52;;;;;;;15.40;9.88;;;2.60;99.90;;;;;;1919622;74;21089;-85
2022/01/28 17:57:45;;;;;;;17.67;9.15;;;2.60;99.90;;;;;;1917306;75;21133;-88
2022/01/28 18:00:39;;;;;;;16.35;9.95;;;2.50;99.90;;;;;;1917653;75;21210;-88
2022/01/28 18:03:31;;;;;;;25.88;14.95;;;2.50;99.90;;;;;;1917348;75;21193;-88
2022/01/28 18:06:23;;;;;;;30.12;17.25;;;2.50;99.90;;;;;;1917661;75;21113;-88
2022/01/28 18:09:14;;;;;;;31.23;16.87;;;2.40;99.90;;;;;;1917760;75;21060;-87
2022/01/28 18:12:08;;;;;;;34.27;18.55;;;2.40;99.90;;;;;;1861535;76;21106;-88
2022/01/28 18:15:00;;;;;;;34.60;19.35;;;2.50;99.90;;;;;;1917544;75;21097;-87
2022/01/28 18:17:52;;;;;;;36.53;19.23;;;2.50;99.90;;;;;;1917454;75;21054;-88
2022/01/28 18:20:44;;;;;;;35.25;19.73;;;2.50;99.90;;;;;;1917443;75;21059;-88
2022/01/28 18:23:36;;;;;;;29.98;17.65;;;2.50;99.90;;;;;;1917836;75;21056;-88
2022/01/28 18:26:28;;;;;;;18.23;10.63;;;2.50;99.90;;;;;;1917474;75;21160;-88
2022/01/28 18:29:20;;;;;;;18.62;10.85;;;2.50;99.90;;;;;;1917385;75;21520;-89
2022/01/28 18:32:12;;;;;;;31.87;16.42;;;2.40;99.90;;;;;;1917123;75;21055;-88
2022/01/28 18:35:03;;;;;;;36.00;19.00;;;2.50;99.90;;;;;;1859082;76;21058;-88
2022/01/28 18:37:55;;;;;;;33.98;19.05;;;2.40;99.90;;;;;;1917460;75;21047;-88
2022/01/28 18:40:47;;;;;;;36.35;20.23;;;2.30;99.90;;;;;;1917437;75;21097;-88
2022/01/28 18:43:41;;;;;;;35.33;19.23;;;2.20;99.90;;;;;;1880746;76;21151;-87
2022/01/28 18:46:41;;;;;;;33.95;19.23;;;2.20;99.90;;;;;;1921841;73;21135;-87
2022/01/28 18:49:30;;;;;;;32.30;18.52;;;2.30;99.90;;;;;;1929194;73;21163;-87
2022/01/28 18:52:25;;;;;;;16.85;10.25;;;2.30;99.90;;;;;;1935697;73;21610;-87
2022/01/28 18:55:17;;;;;;;15.13;10.03;;;2.30;99.90;;;;;;1937982;73;21058;-88
2022/01/28 18:58:12;;;;;;;24.02;14.03;;;2.60;99.90;;;;;;1927103;74;21102;-88
2022/01/28 19:01:04;;;;;;;38.40;20.85;;;2.50;99.90;;;;;;1907811;74;21301;-88
2022/01/28 19:03:56;;;;;;;34.88;20.30;;;2.50;99.90;;;;;;1917272;74;21116;-88
2022/01/28 19:06:49;;;;;;;33.25;19.95;;;2.40;99.90;;;;;;1916897;75;21157;-88
2022/01/28 19:09:40;;;;;;;32.93;19.07;;;2.40;99.90;;;;;;1916822;75;21066;-88